Bookmark and Share
Track history (hours):
 

Alps Wideshine

Last reported at 2014-Apr-06 05:33 UTC. Time now 2014-Apr-19 12:13 UTC.
Position N 27°52' W 079°11'.
Warning: this ship's position is 13 days out of date.

Length 107 m; draft 5.3 m.

Type: Tanker. MMSI: 248694000.

NotesDate/timePositionNaut miles runAvg speedWind from/ knotsBaromVisibWave heightAir tempDewpointWater temp
2014-Apr-06 05:33N 27°52' W 079°11'2512.3
2014-Apr-06 03:33N 27°31' W 079°26'1313.1
2014-Apr-06 02:33N 27°20' W 079°34'1413.9
2014-Apr-06 01:34N 27°08' W 079°42'1714.7
2014-Apr-06 00:26N 26°54' W 079°52'1213.2
2014-Apr-05 23:33N 26°46' W 080°01'2 1.0
2014-Apr-05 21:28N 26°46' W 080°03'0 0.0
2014-Apr-05 20:33N 26°46' W 080°03'0 0.0
2014-Apr-05 19:33N 26°46' W 080°03'0 0.0
2014-Apr-05 18:33N 26°46' W 080°03'0 0.0
2014-Apr-05 17:33N 26°46' W 080°03'0 0.0
2014-Apr-05 16:33N 26°46' W 080°03'0 0.0
2014-Apr-05 15:33N 26°46' W 080°03'0 0.0
2014-Apr-05 14:34N 26°46' W 080°03'0 0.0
2014-Apr-05 13:33N 26°46' W 080°03'0 0.0
2014-Apr-05 12:32N 26°46' W 080°03'0 0.0
2014-Apr-05 11:30N 26°46' W 080°03'0 0.0
2014-Apr-05 10:33N 26°46' W 080°03'0 0.0
2014-Apr-05 09:33N 26°46' W 080°03'0 0.0
2014-Apr-05 08:33N 26°46' W 080°03'0 0.0
2014-Apr-05 07:33N 26°46' W 080°03'0 0.0
2014-Apr-05 06:33N 26°46' W 080°03'0 0.0
2014-Apr-05 05:33N 26°46' W 080°03'0 0.0
2014-Apr-05 04:33N 26°46' W 080°03'0 0.0
2014-Apr-05 03:33N 26°46' W 080°03'0 0.0
2014-Apr-05 02:33N 26°46' W 080°03'0 0.0
2014-Apr-05 01:33N 26°46' W 080°03'0 0.0
2014-Apr-05 00:33N 26°46' W 080°03'0 0.0
2014-Apr-04 23:33N 26°46' W 080°03'0 0.0
2014-Apr-04 22:33N 26°46' W 080°03'0 0.0
2014-Apr-04 21:33N 26°46' W 080°03'0 0.0
2014-Apr-04 20:33N 26°46' W 080°03'0 0.0
2014-Apr-04 19:33N 26°46' W 080°03'0 0.3
2014-Apr-04 18:33N 26°46' W 080°03'5 4.9
2014-Apr-04 17:34N 26°47' W 079°58'6 5.6
2014-Apr-04 16:33N 26°53' W 079°56'2 2.0
2014-Apr-04 15:33N 26°55' W 079°55'5 5.2
2014-Apr-04 14:33N 26°50' W 079°55'  

Dump ship's entire track history

sailing weather and tide predictions

Alps Wideshine — 9HA2472 — position and weather